createdAt,value
2023-09-20T00:01:56.760Z,15.44
2023-09-20T00:04:24.943Z,15.53
2023-09-20T00:06:53.979Z,15.58
2023-09-20T00:09:21.755Z,15.52
2023-09-20T00:11:49.820Z,15.19
2023-09-20T00:14:18.129Z,15.22
2023-09-20T00:16:46.325Z,15.37
2023-09-20T00:19:14.695Z,15.30
2023-09-20T00:21:42.497Z,15.19
2023-09-20T00:24:10.474Z,15.13
2023-09-20T00:26:38.611Z,15.16
2023-09-20T00:29:07.026Z,15.16
2023-09-20T00:31:35.174Z,15.08
2023-09-20T00:34:04.861Z,15.09
2023-09-20T00:36:33.557Z,15.15
2023-09-20T00:39:02.211Z,15.19
2023-09-20T00:41:33.162Z,15.19
2023-09-20T00:44:01.507Z,14.99
2023-09-20T00:46:29.493Z,15.01
2023-09-20T00:48:57.849Z,15.05
2023-09-20T00:51:25.806Z,15.15
2023-09-20T00:53:54.406Z,15.24
2023-09-20T00:56:22.559Z,15.35
2023-09-20T00:58:54.069Z,15.38
2023-09-20T01:01:22.837Z,15.37
2023-09-20T01:03:52.301Z,15.32
2023-09-20T01:06:22.347Z,15.28
2023-09-20T01:08:50.525Z,15.20
2023-09-20T01:11:18.573Z,15.15
2023-09-20T01:13:46.448Z,15.09
2023-09-20T01:16:16.526Z,15.02
2023-09-20T01:18:48.031Z,15.03
2023-09-20T01:21:16.183Z,14.94
2023-09-20T01:23:44.571Z,15.10
2023-09-20T01:26:13.256Z,15.05
2023-09-20T01:28:41.775Z,15.13
2023-09-20T01:31:09.890Z,15.17
2023-09-20T01:33:39.920Z,15.21
2023-09-20T01:36:07.889Z,15.22
2023-09-20T01:38:38.600Z,15.21
2023-09-20T01:41:05.961Z,15.24
2023-09-20T01:43:35.010Z,15.23
2023-09-20T01:46:04.579Z,15.18
2023-09-20T01:48:34.850Z,15.21
2023-09-20T01:51:04.820Z,15.07
2023-09-20T01:53:33.954Z,14.87
2023-09-20T01:56:01.721Z,14.66
2023-09-20T01:58:29.510Z,14.39
2023-09-20T02:00:59.920Z,14.39
2023-09-20T02:03:32.826Z,14.39
2023-09-20T02:06:00.296Z,14.41
2023-09-20T02:08:27.891Z,14.42
2023-09-20T02:10:56.071Z,14.41
2023-09-20T02:13:23.478Z,14.28
2023-09-20T02:15:53.644Z,14.12
2023-09-20T02:18:23.495Z,14.09
2023-09-20T02:20:51.036Z,14.02
2023-09-20T02:23:18.502Z,14.14
2023-09-20T02:25:46.857Z,14.18
2023-09-20T02:28:14.415Z,14.24
2023-09-20T02:30:43.344Z,14.33
2023-09-20T02:33:16.294Z,14.01
2023-09-20T02:35:46.519Z,13.89
2023-09-20T02:38:14.667Z,13.98
2023-09-20T02:40:42.011Z,13.95
2023-09-20T02:43:10.918Z,14.01
2023-09-20T02:45:41.053Z,14.11
2023-09-20T02:48:10.073Z,14.10
2023-09-20T02:50:42.759Z,14.17
2023-09-20T02:53:11.084Z,14.16
2023-09-20T02:55:40.422Z,14.31
2023-09-20T02:58:08.610Z,14.30
2023-09-20T03:00:39.693Z,14.39
2023-09-20T03:03:09.044Z,14.41
2023-09-20T03:05:39.398Z,14.47
2023-09-20T03:08:14.546Z,14.49
2023-09-20T03:10:43.056Z,14.45
2023-09-20T03:13:21.034Z,14.30
2023-09-20T03:15:50.322Z,14.15
2023-09-20T03:18:18.222Z,13.96
2023-09-20T03:20:49.773Z,13.93
2023-09-20T03:23:18.338Z,13.80
2023-09-20T03:25:46.500Z,13.68
2023-09-20T03:28:16.176Z,13.75
2023-09-20T03:30:43.840Z,13.94
2023-09-20T03:33:12.632Z,14.03
2023-09-20T03:35:40.589Z,13.91
2023-09-20T03:38:10.329Z,13.88
2023-09-20T03:40:38.763Z,13.92
2023-09-20T03:43:08.690Z,13.98
2023-09-20T03:45:37.685Z,14.02
2023-09-20T03:48:05.206Z,14.15
2023-09-20T03:50:32.662Z,14.33
2023-09-20T03:53:01.633Z,14.43
2023-09-20T03:55:29.357Z,14.48
2023-09-20T03:57:57.366Z,14.54
2023-09-20T04:00:30.162Z,14.55
2023-09-20T04:03:00.383Z,14.56
2023-09-20T04:05:43.977Z,14.54
2023-09-20T04:08:18.237Z,14.52
2023-09-20T04:10:47.063Z,14.58
2023-09-20T04:13:16.299Z,14.59
2023-09-20T04:15:44.170Z,14.56
2023-09-20T04:18:13.181Z,14.56
2023-09-20T04:20:41.455Z,14.54
2023-09-20T04:23:11.157Z,14.47
2023-09-20T04:25:40.112Z,14.50
2023-09-20T04:28:08.006Z,14.36
2023-09-20T04:30:37.899Z,14.34
2023-09-20T04:33:08.272Z,14.34
2023-09-20T04:35:38.495Z,14.43
2023-09-20T04:38:06.299Z,14.55
2023-09-20T04:40:35.168Z,14.57
2023-09-20T04:43:04.162Z,14.60
2023-09-20T04:45:31.890Z,14.64
2023-09-20T04:47:59.780Z,14.78
2023-09-20T04:50:27.408Z,14.85
2023-09-20T04:52:55.827Z,14.94
2023-09-20T04:55:23.252Z,15.05
2023-09-20T04:57:51.466Z,15.18
2023-09-20T05:00:22.075Z,15.30
2023-09-20T05:02:50.042Z,15.42
2023-09-20T05:05:17.973Z,15.54
2023-09-20T05:07:46.163Z,15.58
2023-09-20T05:10:15.322Z,15.70
2023-09-20T05:12:43.298Z,15.75
2023-09-20T05:15:14.383Z,15.90
2023-09-20T05:17:44.704Z,16.14
2023-09-20T05:20:14.899Z,16.39
2023-09-20T05:22:42.950Z,16.72
2023-09-20T05:25:11.097Z,16.97
2023-09-20T05:27:39.016Z,17.24
2023-09-20T05:30:06.740Z,17.31
2023-09-20T05:32:37.358Z,17.37
2023-09-20T05:35:05.330Z,17.43
2023-09-20T05:37:32.687Z,17.10
2023-09-20T05:40:01.139Z,17.15
2023-09-20T05:42:29.581Z,17.41
2023-09-20T05:44:59.860Z,17.66
2023-09-20T05:47:27.226Z,18.03
2023-09-20T05:49:54.967Z,18.39
2023-09-20T05:52:23.099Z,18.78
2023-09-20T05:54:50.996Z,18.81
2023-09-20T05:57:20.466Z,18.29
2023-09-20T05:59:47.821Z,18.94
2023-09-20T06:02:15.202Z,19.30
2023-09-20T06:04:43.145Z,19.48
2023-09-20T06:07:12.290Z,19.40
2023-09-20T06:09:40.705Z,19.45
2023-09-20T06:12:09.317Z,19.44
2023-09-20T06:14:36.629Z,19.48
2023-09-20T06:17:06.069Z,19.67
2023-09-20T06:19:34.131Z,19.96
2023-09-20T06:22:02.345Z,20.61
2023-09-20T06:24:29.669Z,20.79
2023-09-20T06:26:59.991Z,20.96
2023-09-20T06:29:28.308Z,21.73
2023-09-20T06:31:55.792Z,22.20
2023-09-20T06:34:25.733Z,22.14
2023-09-20T06:36:54.040Z,22.84
2023-09-20T06:39:21.636Z,24.20
2023-09-20T06:41:50.371Z,25.69
2023-09-20T06:44:17.859Z,26.00
2023-09-20T06:46:45.236Z,25.91
2023-09-20T06:49:13.281Z,26.90
2023-09-20T06:51:43.853Z,27.42
2023-09-20T06:54:13.529Z,26.92
2023-09-20T06:56:42.456Z,26.17
2023-09-20T06:59:12.437Z,25.85
2023-09-20T07:01:41.579Z,25.61
2023-09-20T07:04:10.918Z,26.91
2023-09-20T07:06:38.634Z,28.14
2023-09-20T07:09:06.597Z,30.12
2023-09-20T07:11:35.925Z,31.42
2023-09-20T07:14:07.179Z,32.42
2023-09-20T07:16:37.560Z,32.53
2023-09-20T07:19:07.261Z,32.30
2023-09-20T07:21:38.443Z,32.68
2023-09-20T07:24:13.854Z,32.61
2023-09-20T07:26:44.717Z,32.88
2023-09-20T07:29:14.350Z,33.42
2023-09-20T07:31:43.267Z,33.63
2023-09-20T07:34:19.175Z,33.91
2023-09-20T07:36:51.558Z,34.23
2023-09-20T07:39:22.225Z,32.18
2023-09-20T07:41:54.073Z,32.66
2023-09-20T07:44:32.293Z,31.99
2023-09-20T07:47:00.337Z,31.99
2023-09-20T07:49:28.663Z,32.69
2023-09-20T07:51:57.258Z,33.13
2023-09-20T07:54:25.463Z,33.32
2023-09-20T07:56:53.940Z,31.64
2023-09-20T07:59:27.253Z,32.25
2023-09-20T08:01:56.174Z,32.09
2023-09-20T08:04:26.357Z,32.45
2023-09-20T08:06:56.178Z,32.50
2023-09-20T08:09:24.436Z,32.20
2023-09-20T08:11:52.351Z,31.71
2023-09-20T08:14:19.745Z,31.46
2023-09-20T08:17:05.983Z,32.01
2023-09-20T08:19:33.821Z,32.50
2023-09-20T08:22:04.924Z,32.29
2023-09-20T08:24:51.631Z,30.66
2023-09-20T08:27:38.051Z,31.67
2023-09-20T08:30:24.240Z,30.39
2023-09-20T08:33:10.699Z,29.77
2023-09-20T08:35:56.904Z,30.47
2023-09-20T08:38:45.713Z,30.52
2023-09-20T08:41:33.965Z,31.13
2023-09-20T08:44:25.842Z,31.33
2023-09-20T08:47:11.674Z,31.10
2023-09-20T08:49:59.531Z,31.47
2023-09-20T08:52:46.672Z,30.92
2023-09-20T08:55:33.169Z,30.38
2023-09-20T08:58:19.365Z,30.43
2023-09-20T09:00:48.117Z,30.70
2023-09-20T09:03:16.253Z,31.30
2023-09-20T09:05:48.816Z,30.72
2023-09-20T09:08:18.753Z,31.11
2023-09-20T09:10:49.058Z,31.76
2023-09-20T09:16:40.331Z,32.61
2023-09-20T09:29:18.867Z,34.05
2023-09-20T09:31:50.744Z,34.60
2023-09-20T09:34:20.560Z,33.75
2023-09-20T09:36:48.776Z,33.69
2023-09-20T09:39:32.195Z,33.64
2023-09-20T09:42:02.508Z,34.39
2023-09-20T09:44:43.725Z,34.88
2023-09-20T09:47:13.390Z,33.69
2023-09-20T09:49:43.327Z,31.23
2023-09-20T09:52:13.460Z,30.23
2023-09-20T09:54:41.273Z,29.60
2023-09-20T09:57:09.496Z,29.66
2023-09-20T09:59:37.820Z,29.13
2023-09-20T10:02:05.812Z,28.62
2023-09-20T10:04:37.492Z,28.30
2023-09-20T10:10:29.980Z,28.40
2023-09-20T10:16:21.782Z,28.50
2023-09-20T10:18:56.824Z,28.27
2023-09-20T10:21:28.351Z,28.05
2023-09-20T10:24:00.829Z,27.88
2023-09-20T10:26:29.010Z,27.87
2023-09-20T10:29:19.909Z,28.23
2023-09-20T10:41:20.025Z,28.53
2023-09-20T10:43:50.087Z,28.55
2023-09-20T10:46:18.933Z,28.26
2023-09-20T10:48:50.556Z,27.52
2023-09-20T10:51:37.278Z,27.58
2023-09-20T10:54:23.935Z,27.67
2023-09-20T10:56:53.734Z,28.03
2023-09-20T10:59:26.217Z,27.82
2023-09-20T11:01:56.309Z,27.77
2023-09-20T11:07:48.171Z,27.35
2023-09-20T11:13:43.159Z,27.87
2023-09-20T11:16:11.275Z,27.47
2023-09-20T11:18:40.100Z,27.50
2023-09-20T11:21:08.917Z,27.83
2023-09-20T11:23:37.905Z,27.78
2023-09-20T11:26:07.922Z,27.42
2023-09-20T11:28:36.377Z,27.73
2023-09-20T11:34:43.201Z,27.60
2023-09-20T11:37:12.459Z,27.45
2023-09-20T11:39:48.312Z,27.68
2023-09-20T11:42:33.324Z,27.26
2023-09-20T11:45:27.108Z,27.39
2023-09-20T11:47:53.350Z,27.55
2023-09-20T11:50:22.867Z,27.36
2023-09-20T11:52:50.977Z,27.60
2023-09-20T11:55:21.592Z,27.75
2023-09-20T11:57:49.793Z,28.12
2023-09-20T12:00:18.293Z,28.25
2023-09-20T12:02:47.361Z,28.53
2023-09-20T12:05:15.456Z,28.41
2023-09-20T12:07:53.120Z,28.51
2023-09-20T12:10:21.458Z,28.54
2023-09-20T12:12:52.832Z,28.38
2023-09-20T12:15:25.148Z,28.38
2023-09-20T12:17:56.616Z,28.46
2023-09-20T12:20:29.596Z,28.32
2023-09-20T12:23:03.720Z,28.45
2023-09-20T12:25:32.575Z,28.35
2023-09-20T12:28:00.847Z,28.51
2023-09-20T12:30:29.723Z,28.06
2023-09-20T12:32:59.223Z,28.11
2023-09-20T12:35:29.995Z,28.21
2023-09-20T12:37:58.152Z,28.19
2023-09-20T12:40:26.911Z,28.31
2023-09-20T12:42:55.185Z,28.35
2023-09-20T12:45:25.786Z,28.35
2023-09-20T12:47:54.317Z,28.27
2023-09-20T12:50:23.213Z,28.29
2023-09-20T12:52:50.776Z,28.54
2023-09-20T12:55:18.875Z,28.56
2023-09-20T12:57:48.613Z,28.61
2023-09-20T13:00:26.934Z,28.56
2023-09-20T13:06:27.823Z,28.30
2023-09-20T13:09:15.291Z,28.27
2023-09-20T13:11:47.720Z,28.10
2023-09-20T13:14:20.897Z,27.79
2023-09-20T13:16:54.360Z,27.78
2023-09-20T13:19:22.580Z,27.79
2023-09-20T13:21:51.108Z,27.82
2023-09-20T13:24:18.997Z,27.56
2023-09-20T13:26:50.881Z,27.49
2023-09-20T13:29:18.865Z,27.53
2023-09-20T13:31:47.429Z,27.42
2023-09-20T13:34:17.432Z,27.46
2023-09-20T13:36:48.898Z,27.44
2023-09-20T13:39:20.070Z,27.26
2023-09-20T13:41:50.310Z,27.26
2023-09-20T13:44:20.791Z,27.36
2023-09-20T13:46:48.749Z,27.34
2023-09-20T13:49:17.441Z,27.30
2023-09-20T13:51:46.840Z,27.32
2023-09-20T13:54:14.705Z,27.42
2023-09-20T13:56:45.378Z,27.49
2023-09-20T13:59:13.566Z,27.50
2023-09-20T14:01:42.025Z,27.59
2023-09-20T14:04:11.072Z,27.62
2023-09-20T14:06:39.415Z,27.54
2023-09-20T14:09:09.722Z,27.51
2023-09-20T14:11:37.946Z,27.52
2023-09-20T14:14:06.290Z,27.50
2023-09-20T14:16:35.994Z,27.44
2023-09-20T14:19:05.565Z,27.46
2023-09-20T14:21:35.524Z,27.46
2023-09-20T14:24:04.920Z,27.45
2023-09-20T14:26:39.928Z,27.37
2023-09-20T14:29:11.370Z,27.36
2023-09-20T14:31:39.584Z,27.27
2023-09-20T14:34:09.985Z,27.31
2023-09-20T14:36:43.268Z,27.16
2023-09-20T14:42:10.614Z,27.19
2023-09-20T14:44:39.147Z,27.29
2023-09-20T14:47:06.960Z,27.18
2023-09-20T14:49:34.778Z,27.35
2023-09-20T14:52:03.295Z,27.39
2023-09-20T14:54:33.316Z,27.39
2023-09-20T14:57:03.539Z,27.35
2023-09-20T14:59:31.692Z,27.28
2023-09-20T15:02:00.281Z,27.10
2023-09-20T15:04:32.758Z,26.93
2023-09-20T15:07:01.110Z,27.05
2023-09-20T15:09:33.152Z,27.05
2023-09-20T15:12:01.278Z,26.98
2023-09-20T15:14:30.436Z,26.89
2023-09-20T15:16:58.519Z,26.90
2023-09-20T15:19:33.056Z,26.81
2023-09-20T15:22:01.013Z,26.82
2023-09-20T15:24:29.178Z,26.96
2023-09-20T15:26:59.044Z,26.95
2023-09-20T15:29:26.924Z,26.72
2023-09-20T15:31:55.109Z,26.78
2023-09-20T15:34:23.550Z,26.75
2023-09-20T15:36:51.425Z,26.68
2023-09-20T15:39:19.538Z,26.61
2023-09-20T15:41:47.467Z,26.56
2023-09-20T15:44:16.671Z,26.56
2023-09-20T15:46:46.287Z,26.45
2023-09-20T15:49:14.212Z,26.45
2023-09-20T15:51:44.863Z,26.41
2023-09-20T15:54:14.450Z,26.30
2023-09-20T15:56:42.797Z,26.28
2023-09-20T16:02:34.122Z,26.11
2023-09-20T16:08:38.684Z,25.92
2023-09-20T16:11:12.319Z,25.86
2023-09-20T16:13:42.970Z,25.75
2023-09-20T16:16:16.708Z,25.55
2023-09-20T16:18:48.355Z,25.53
2023-09-20T16:21:17.818Z,25.40
2023-09-20T16:23:49.762Z,25.32
2023-09-20T16:26:30.534Z,25.16
2023-09-20T16:29:03.619Z,24.98
2023-09-20T16:31:36.226Z,24.78
2023-09-20T16:34:05.304Z,24.65
2023-09-20T16:36:39.589Z,24.53
2023-09-20T16:39:08.682Z,24.37
2023-09-20T16:41:41.488Z,24.27
2023-09-20T16:44:10.157Z,24.22
2023-09-20T16:46:39.844Z,24.14
2023-09-20T16:49:09.445Z,23.96
2023-09-20T16:51:39.099Z,23.81
2023-09-20T16:54:10.676Z,23.66
2023-09-20T16:56:39.598Z,23.44
2023-09-20T16:59:10.072Z,23.37
2023-09-20T17:01:38.997Z,23.22
2023-09-20T17:04:14.093Z,23.14
2023-09-20T17:06:42.234Z,23.10
2023-09-20T17:12:11.156Z,22.96
2023-09-20T17:14:40.424Z,22.92
2023-09-20T17:17:11.148Z,22.93
2023-09-20T17:19:40.477Z,22.90
2023-09-20T17:22:12.111Z,22.85
2023-09-20T17:24:41.958Z,22.80
2023-09-20T17:30:36.330Z,22.59
2023-09-20T17:33:04.474Z,22.49
2023-09-20T17:35:32.906Z,22.42
2023-09-20T17:38:00.940Z,22.35
2023-09-20T17:40:30.806Z,22.26
2023-09-20T17:43:00.072Z,22.12
2023-09-20T17:45:43.153Z,22.04
2023-09-20T17:51:33.664Z,21.81
2023-09-20T17:54:02.621Z,21.67
2023-09-20T17:56:38.631Z,21.54
2023-09-20T17:59:08.187Z,21.47
2023-09-20T18:01:37.692Z,21.43
2023-09-20T18:04:10.482Z,21.41
2023-09-20T18:06:39.756Z,21.36
2023-09-20T18:09:15.175Z,21.31
2023-09-20T18:11:50.924Z,21.22
2023-09-20T18:14:20.806Z,21.19
2023-09-20T18:16:49.330Z,21.17
2023-09-20T18:22:59.697Z,20.90
2023-09-20T18:31:45.143Z,20.81
2023-09-20T18:34:15.602Z,20.79
2023-09-20T18:36:44.753Z,20.78
2023-09-20T18:39:14.872Z,20.77
2023-09-20T18:41:45.557Z,20.76
2023-09-20T18:44:16.446Z,20.66
2023-09-20T18:46:47.447Z,20.65
2023-09-20T18:49:18.854Z,20.58
2023-09-20T18:51:47.587Z,20.52
2023-09-20T18:54:18.512Z,20.50
2023-09-20T18:56:48.399Z,20.49
2023-09-20T18:59:30.296Z,20.43
2023-09-20T19:02:02.638Z,20.42
2023-09-20T19:04:54.156Z,20.40
2023-09-20T19:14:03.638Z,20.38
2023-09-20T19:16:33.601Z,20.20
2023-09-20T19:19:03.118Z,20.10
2023-09-20T19:21:40.676Z,20.09
2023-09-20T19:24:11.168Z,20.10
2023-09-20T19:27:00.053Z,20.22
2023-09-20T19:29:30.778Z,20.23
2023-09-20T19:32:00.306Z,20.18
2023-09-20T19:34:28.910Z,20.13
2023-09-20T19:36:59.202Z,20.04
2023-09-20T19:39:30.888Z,20.06
2023-09-20T19:42:02.087Z,19.86
2023-09-20T19:44:32.900Z,19.93
2023-09-20T19:47:01.901Z,19.94
2023-09-20T19:49:33.191Z,19.98
2023-09-20T19:52:02.629Z,20.11
2023-09-20T19:54:32.172Z,20.10
2023-09-20T19:57:00.785Z,19.97
2023-09-20T19:59:32.423Z,19.94
2023-09-20T20:02:02.835Z,19.91
2023-09-20T20:04:32.245Z,19.79
2023-09-20T20:07:13.894Z,19.78
2023-09-20T20:09:52.833Z,19.68
2023-09-20T20:12:21.184Z,19.60
2023-09-20T20:14:50.325Z,19.59
2023-09-20T20:17:21.245Z,19.57
2023-09-20T20:19:57.253Z,19.56
2023-09-20T20:22:26.281Z,19.56
2023-09-20T20:24:56.411Z,19.59
2023-09-20T20:27:24.612Z,19.63
2023-09-20T20:29:54.149Z,19.63
2023-09-20T20:32:22.811Z,19.59
2023-09-20T20:34:51.915Z,19.78
2023-09-20T20:37:21.172Z,19.74
2023-09-20T20:39:50.767Z,19.56
2023-09-20T20:42:22.642Z,19.58
2023-09-20T20:44:50.993Z,19.53
2023-09-20T20:47:19.133Z,19.43
2023-09-20T20:49:47.218Z,19.39
2023-09-20T20:52:16.407Z,19.38
2023-09-20T20:54:44.890Z,19.33
2023-09-20T20:57:16.871Z,19.33
2023-09-20T20:59:46.146Z,19.28
2023-09-20T21:02:14.406Z,19.30
2023-09-20T21:04:43.420Z,19.28
2023-09-20T21:07:13.738Z,19.27
2023-09-20T21:09:41.717Z,19.20
2023-09-20T21:12:11.429Z,19.17
2023-09-20T21:14:40.298Z,19.16
2023-09-20T21:17:08.133Z,19.14
2023-09-20T21:19:35.903Z,19.25
2023-09-20T21:22:05.192Z,19.16
2023-09-20T21:24:33.059Z,19.22
2023-09-20T21:27:01.246Z,19.30
2023-09-20T21:29:30.862Z,19.35
2023-09-20T21:31:58.761Z,19.33
2023-09-20T21:34:26.617Z,19.27
2023-09-20T21:36:54.708Z,19.12
2023-09-20T21:39:22.842Z,19.00
2023-09-20T21:41:50.677Z,18.99
2023-09-20T21:44:20.207Z,19.03
2023-09-20T21:46:48.040Z,19.05
2023-09-20T21:49:16.719Z,19.18
2023-09-20T21:51:44.768Z,19.25
2023-09-20T21:54:12.629Z,18.89
2023-09-20T21:56:40.721Z,18.74
2023-09-20T21:59:08.885Z,18.68
2023-09-20T22:01:36.648Z,18.72
2023-09-20T22:04:05.958Z,18.71
2023-09-20T22:06:34.478Z,18.77
2023-09-20T22:09:02.338Z,18.83
2023-09-20T22:11:31.468Z,18.89
2023-09-20T22:14:02.093Z,18.82
2023-09-20T22:16:35.975Z,18.83
2023-09-20T22:19:03.850Z,18.81
2023-09-20T22:21:32.014Z,18.78
2023-09-20T22:24:00.073Z,18.76
2023-09-20T22:26:27.453Z,18.68
2023-09-20T22:28:56.333Z,18.58
2023-09-20T22:31:25.873Z,18.72
2023-09-20T22:33:53.617Z,18.65
2023-09-20T22:36:21.334Z,18.63
2023-09-20T22:38:50.491Z,18.64
2023-09-20T22:41:18.035Z,18.49
2023-09-20T22:43:46.455Z,18.35
2023-09-20T22:46:16.188Z,18.38
2023-09-20T22:48:45.093Z,18.45
2023-09-20T22:51:13.281Z,18.47
2023-09-20T22:53:40.732Z,18.57
2023-09-20T22:56:08.276Z,18.42
2023-09-20T22:58:35.920Z,18.32
2023-09-20T23:01:06.599Z,18.33
2023-09-20T23:03:35.634Z,18.42
2023-09-20T23:06:04.678Z,18.31
2023-09-20T23:08:34.080Z,18.22
2023-09-20T23:11:02.735Z,18.32
2023-09-20T23:13:35.701Z,18.39
2023-09-20T23:16:08.825Z,18.36
2023-09-20T23:18:36.731Z,18.32
2023-09-20T23:21:05.721Z,18.44
2023-09-20T23:23:34.166Z,18.46
2023-09-20T23:26:01.810Z,18.37
2023-09-20T23:28:29.136Z,18.27
2023-09-20T23:31:00.036Z,18.45
2023-09-20T23:33:28.692Z,18.27
2023-09-20T23:36:00.647Z,18.33
2023-09-20T23:38:29.997Z,18.39
2023-09-20T23:41:02.246Z,18.51
2023-09-20T23:43:31.782Z,18.42
2023-09-20T23:45:59.829Z,18.41
2023-09-20T23:48:27.799Z,18.40
2023-09-20T23:51:02.640Z,18.20
2023-09-20T23:53:30.548Z,18.26
2023-09-20T23:55:58.664Z,17.94
2023-09-20T23:58:28.251Z,17.82
